Terminal Aerodrome Forecast
Issued by NWS Topeka, KS

Home | Current Version | Previous Version | Text Only | Print | Product List | Glossary Off
Versions: 1 2 3 4 5 6 7 8 9 10 11 12 13 14 15 16 17

000
FTUS43 KTOP 210500
TAFTOP
TAF
KTOP 210527Z 2106/2206 18008KT P6SM FEW015 SCT200
     FM210800 19010KT 5SM BR OVC014=

USA.gov is the U.S. government's official web portal to all federal, state and local government web resources and services.